Latest Coastal Weather Observations for Sydney Harbour

IDN60701

Issued at 3:01 am EST Thursday 26 May 2016 (issued every 10 minutes, with the page automatically refreshed every 10 minutes)

About coastal observations | Map of coastal stations | Coastal observations for NSW | Marine services | Other Formats
Station Details ID: 066196 Name: WEDDING CAKE WEST Lat: -33.84 Lon: 151.26 Height: 6.0 m
Data from the previous 72 hours. | See also: Recent months at Sydney Harbour
Date/Time
EST
Temp

°C
Wind Pressure Rain
since 9am
mm
Weather Cloud Vis
km
Sea
Height
m
Swell
Dir
 
Speed
knots
Gust
knots
hPa Trend Height
m
Period
s
Dir
26/03:00am 15.4 W 5 6 - - - - - - - - - -
26/02:30am 16.0 W 5 6 - - - - - - - - - -
26/02:00am 15.9 WSW 7 9 - - - - - - - - - -
26/01:30am 15.7 WNW 5 8 - - - - - - - - - -
26/01:00am 15.8 NW 4 5 - - - - - - - - - -
26/12:30am 16.1 NNW 4 7 - - - - - - - - - -
26/12:00am 15.3 NNW 2 5 - - - - - - - - - -
 
Date/Time
EST
Temp

°C
Wind Pressure Rain
since 9am
mm
Weather Cloud Vis
km
Sea
Height
m
Swell
Dir
 
Speed
knots
Gust
knots
hPa Trend Height
m
Period
s
Dir
25/11:30pm 15.7 W 5 8 - - - - - - - - - -
25/11:00pm 15.9 WSW 2 6 - - - - - - - - - -
25/10:30pm 15.4 WSW 5 7 - - - - - - - - - -
25/10:00pm 15.5 WSW 4 6 - - - - - - - - - -
25/09:30pm 15.5 WSW 7 9 - - - - - - - - - -
25/09:00pm 16.9 NNW 8 11 - - - - - - - - - -
25/08:30pm 16.9 NNW 8 9 - - - - - - - - - -
25/08:00pm 17.1 NNW 8 9 - - - - - - - - - -
25/07:30pm 17.0 N 7 8 - - - - - - - - - -
25/07:00pm 17.0 N 7 8 - - - - - - - - - -
25/06:30pm 16.8 N 8 9 - - - - - - - - - -
25/06:00pm 18.0 NE 7 8 - - - - - - - - - -
25/05:30pm 17.8 NE 7 8 - - - - - - - - - -
25/05:00pm 17.8 NE 7 9 - - - - - - - - - -
25/04:30pm 17.7 NE 7 9 - - - - - - - - - -
25/04:00pm 17.8 ENE 7 8 - - - - - - - - - -
25/03:30pm 18.4 WSW 1 7 - - - - - - - - - -
25/03:00pm 18.8 WSW 4 5 - - - - - - - - - -
25/02:30pm 18.2 WSW 1 5 - - - - - - - - - -
25/02:00pm 17.8 CALM 0 3 - - - - - - - - - -
25/01:30pm 17.6 WSW 5 7 - - - - - - - - - -
25/01:00pm 17.2 WSW 7 8 - - - - - - - - - -
25/12:30pm 16.9 W 6 9 - - - - - - - - - -
25/12:00pm 16.4 W 8 10 - - - - - - - - - -
25/11:30am 15.9 W 6 9 - - - - - - - - - -
25/11:00am 15.4 W 11 15 - - - - - - - - - -
25/10:30am 15.0 W 9 12 - - - - - - - - - -
25/10:00am 14.5 W 10 12 - - - - - - - - - -
25/09:30am 14.2 WSW 10 13 - - - - - - - - - -
25/09:00am 13.6 WSW 12 14 - - - - - - - - - -
25/08:30am 12.9 WSW 11 14 - - - - - - - - - -
25/08:00am 13.0 WSW 12 16 - - - - - - - - - -
25/07:30am 12.4 WSW 11 13 - - - - - - - - - -
25/07:00am 12.4 WSW 10 13 - - - - - - - - - -
25/06:30am 12.5 WSW 9 11 - - - - - - - - - -
25/06:00am 12.3 WSW 8 11 - - - - - - - - - -
25/05:30am 12.5 W 10 13 - - - - - - - - - -
25/05:00am 13.1 W 9 10 - - - - - - - - - -
25/04:30am 13.5 WSW 8 11 - - - - - - - - - -
25/04:00am 13.3 WSW 12 16 - - - - - - - - - -
25/03:30am 13.3 WSW 11 15 - - - - - - - - - -
25/03:00am 13.8 WSW 11 16 - - - - - - - - - -
25/02:30am 14.1 WSW 12 15 - - - - - - - - - -
25/02:00am 14.4 WSW 13 19 - - - - - - - - - -
25/01:30am 14.5 W 13 17 - - - - - - - - - -
25/01:00am 14.2 W 11 17 - - - - - - - - - -
25/12:30am 14.7 WSW 11 19 - - - - - - - - - -
25/12:00am 14.7 WSW 10 15 - - - - - - - - - -
 
Date/Time
EST
Temp

°C
Wind Pressure Rain
since 9am
mm
Weather Cloud Vis
km
Sea
Height
m
Swell
Dir
 
Speed
knots
Gust
knots
hPa Trend Height
m
Period
s
Dir
24/11:30pm 14.9 WSW 11 15 - - - - - - - - - -
24/11:00pm 15.3 W 11 15 - - - - - - - - - -
24/10:30pm 15.6 WSW 11 16 - - - - - - - - - -
24/10:00pm 15.9 WSW 14 18 - - - - - - - - - -
24/09:30pm 16.2 W 15 19 - - - - - - - - - -
24/09:00pm 16.5 WSW 19 27 - - - - - - - - - -
24/08:30pm 16.8 WSW 16 22 - - - - - - - - - -
24/08:00pm 17.3 WSW 13 19 - - - - - - - - - -
24/07:30pm 17.6 WSW 14 18 - - - - - - - - - -
24/07:00pm 18.0 WSW 12 16 - - - - - - - - - -
24/06:30pm 18.4 W 12 16 - - - - - - - - - -
24/06:00pm 18.7 WSW 12 16 - - - - - - - - - -
24/05:30pm 19.2 WSW 9 14 - - - - - - - - - -
24/05:00pm 19.5 WSW 13 17 - - - - - - - - - -
24/04:30pm 20.0 SW 18 23 - - - - - - - - - -
24/04:00pm 20.3 WSW 17 23 - - - - - - - - - -
24/03:41pm 20.5 WSW 15 27 - - - - - - - - - -
24/03:30pm 20.5 WSW 15 24 - - - - - - - - - -
24/03:00pm 20.5 WSW 12 17 - - - - - - - - - -
24/02:30pm 20.2 WSW 14 19 - - - - - - - - - -
24/02:00pm 19.7 WSW 11 19 - - - - - - - - - -
24/01:30pm 19.2 WSW 13 17 - - - - - - - - - -
24/01:00pm 18.7 WSW 13 19 - - - - - - - - - -
24/12:30pm 18.1 W 16 23 - - - - - - - - - -
24/12:00pm 17.5 W 13 18 - - - - - - - - - -
24/11:30am 17.0 W 15 22 - - - - - - - - - -
24/11:00am 16.4 W 12 19 - - - - - - - - - -
24/10:30am 15.5 W 11 16 - - - - - - - - - -
24/10:00am 15.2 WSW 11 14 - - - - - - - - - -
24/09:30am 15.5 W 9 14 - - - - - - - - - -
24/09:00am 15.3 W 9 12 - - - - - - - - - -
24/08:30am 15.0 W 11 14 - - - - - - - - - -
24/08:00am 15.0 W 8 13 - - - - - - - - - -
24/07:30am 14.4 WNW 9 12 - - - - - - - - - -
24/07:00am 14.3 W 9 12 - - - - - - - - - -
24/06:30am 14.2 WNW 7 11 - - - - - - - - - -
24/06:00am 13.7 WNW 10 14 - - - - - - - - - -
24/05:30am 14.3 W 10 14 - - - - - - - - - -
24/05:00am 14.6 W 13 17 - - - - - - - - - -
24/04:30am 14.8 W 14 18 - - - - - - - - - -
24/04:00am 14.7 WSW 14 18 - - - - - - - - - -
24/03:30am 14.7 W 18 26 - - - - - - - - - -
24/03:00am 14.8 WSW 16 25 - - - - - - - - - -
24/02:30am 14.7 WSW 18 24 - - - - - - - - - -
24/02:00am 14.8 WSW 17 24 - - - - - - - - - -
24/01:30am 15.3 WSW 16 23 - - - - - - - - - -
24/01:00am 15.4 WSW 17 25 - - - - - - - - - -
24/12:42am 15.4 WSW 16 26 - - - - - - - - - -
24/12:30am 15.6 WSW 16 23 - - - - - - - - - -
24/12:12am 15.7 WSW 16 26 - - - - - - - - - -
24/12:00am 15.8 W 21 26 - - - - - - - - - -
 
Date/Time
EST
Temp

°C
Wind Pressure Rain
since 9am
mm
Weather Cloud Vis
km
Sea
Height
m
Swell
Dir
 
Speed
knots
Gust
knots
hPa Trend Height
m
Period
s
Dir
23/11:30pm 16.0 W 22 30 - - - - - - - - - -
23/11:15pm 16.1 W 20 30 - - - - - - - - - -
23/11:00pm 16.2 W 17 25 - - - - - - - - - -
23/10:30pm 16.3 W 17 21 - - - - - - - - - -
23/10:00pm 16.2 W 16 26 - - - - - - - - - -
23/09:59pm 16.3 W 15 26 - - - - - - - - - -
23/09:30pm 16.6 W 18 27 - - - - - - - - - -
23/09:11pm 16.8 W 17 27 - - - - - - - - - -
23/09:00pm 17.0 W 19 26 - - - - - - - - - -
23/08:30pm 17.3 W 18 25 - - - - - - - - - -
23/08:00pm 17.7 WSW 22 30 - - - - - - - - - -
23/07:30pm 18.2 W 17 25 - - - - - - - - - -
23/07:00pm 18.6 W 17 23 - - - - - - - - - -
23/06:30pm 19.1 W 18 25 - - - - - - - - - -
23/06:00pm 19.6 W 18 24 - - - - - - - - - -
23/05:30pm 20.1 WSW 17 24 - - - - - - - - - -
23/05:09pm 20.7 WSW 17 27 - - - - - - - - - -
23/05:00pm 20.9 WSW 19 28 - - - - - - - - - -
23/04:30pm 21.6 SW 20 28 - - - - - - - - - -
23/04:20pm 21.8 SW 23 33 - - - - - - - - - -
23/04:00pm 22.0 WSW 25 33 - - - - - - - - - -
23/03:46pm 22.3 WSW 19 29 - - - - - - - - - -
23/03:30pm 22.5 SW 22 29 - - - - - - - - - -
23/03:15pm 22.4 SW 21 31 - - - - - - - - - -
23/03:00pm 22.4 SW 22 25 - - - - - - - - - -
23/02:30pm 23.0 WSW 14 21 - - - - - - - - - -
23/02:00pm 23.2 WSW 11 17 - - - - - - - - - -
23/01:39pm 23.6 WSW 17 27 - - - - - - - - - -
23/01:30pm 23.4 SW 21 27 - - - - - - - - - -
23/01:19pm 24.0 WSW 17 25 - - - - - - - - - -
23/01:00pm 25.4 W 19 26 - - - - - - - - - -
23/12:30pm 26.0 W 20 30 - - - - - - - - - -
23/12:21pm 25.9 W 19 29 - - - - - - - - - -
23/12:00pm 25.6 W 21 29 - - - - - - - - - -
23/11:38am 25.3 W 13 26 - - - - - - - - - -
23/11:30am 25.3 WNW 11 17 - - - - - - - - - -
23/11:00am 24.9 WNW 11 17 - - - - - - - - - -
23/10:30am 24.1 N 10 12 - - - - - - - - - -
23/10:00am 23.5 N 10 13 - - - - - - - - - -
23/09:30am 22.5 N 10 17 - - - - - - - - - -
23/09:00am 21.9 N 10 17 - - - - - - - - - -
23/08:30am 21.2 N 10 14 - - - - - - - - - -
23/08:00am 20.0 N 7 9 - - - - - - - - - -
23/07:30am 19.6 N 7 10 - - - - - - - - - -
23/07:00am 18.4 NNE 6 7 - - - - - - - - - -
23/06:30am 18.8 N 7 8 - - - - - - - - - -
23/06:00am 19.3 NNW 8 11 - - - - - - - - - -
23/05:30am 19.1 NNW 7 9 - - - - - - - - - -
23/05:00am 19.1 NNW 10 13 - - - - - - - - - -
23/04:30am 19.7 NNW 9 15 - - - - - - - - - -
23/04:00am 19.6 NW 6 9 - - - - - - - - - -
23/03:30am 19.3 NW 6 11 - - - - - - - - - -

Other Formats:

Comma delimited format used in spreadsheet applications
http://www.bom.gov.au/fwo/IDN60701/IDN60701.95766.axf

JavaScript Object Notation format (JSON) in row-major order
http://www.bom.gov.au/fwo/IDN60701/IDN60701.95766.json